Utilizamos cookies propias y de terceros para ofrecer nuestros servicios, recoger información estadística e incluir publicidad. Si continua navegando acepta su instalación y uso. Puede cambiar la configuración u obtener más información en nuestra ACEPTAR | Más información

 INFORMACIÓN METAR y TAF
METAR FOR LESB
ADDS - METARS form results

(0027 UTC 03 June 2020)
Data provider http://aviationweather.gov/metar/data/
 
METAR text: LESB 030000Z AUTO 31003KT CAVOK 20/12 Q1015
Conditions at: LESB (MALLORCA SON BON, ES) observed 0000 UTC 03 June 2020
Temperature: 20.0°C (68°F)
Dewpoint: 12.0°C (54°F) [RH = 60%]
Pressure (altimeter): 29.97 inches Hg (1015.0 mb)
Winds: from the NW (310 degrees) at 3 MPH (3 knots; 1.5 m/s)
Visibility: 6 or more miles (10+ km)
Ceiling: ceiling and visibility are OK
Clouds: unknown
Weather: no significant weather observed at this time

METAR text: LESB 022330Z AUTO 33002KT CAVOK 20/12 Q1015
Conditions at: LESB (MALLORCA SON BON, ES) observed 2330 UTC 02 June 2020
Temperature: 20.0°C (68°F)
Dewpoint: 12.0°C (54°F) [RH = 60%]
Pressure (altimeter): 29.97 inches Hg (1015.0 mb)
Winds: from the NNW (330 degrees) at 2 MPH (2 knots; 1.0 m/s)
Visibility: 6 or more miles (10+ km)
Ceiling: ceiling and visibility are OK
Clouds: unknown
Weather: no significant weather observed at this time

 MAPA DE AEROPUERTO

 INFORMACIÓN DE PISTA
Pista 06 Longitud 3281 ft Ancho 72 ft
Elevación 0 ft Umbral desplazado 0 ft Rumbo de pista 49
Pista 24 Longitud 3281 ft Ancho 72 ft
Elevación 0 ft Umbral desplazado 0 ft Rumbo de pista 229

 FRECUANCIAS DEL AEROPUERTO
Tipo APP Nombre PALMA APP Frecuencia 119.4 MHZ
Tipo OPS Nombre PALMA OPS Frecuencia 130.25 MHZ
Tipo TWR Nombre PALMA TWR Frecuencia 118.3 MHZ

 RADIO AYUDAS DEL AEROPUERTO

© Todos los derechos reservados. Aviso Legal | Política de Privacidad | Política de cookies |